Time;durP1;ratioP1;P1;durP2;ratioP2;P2;SDS_P1;SDS_P2;PMS_P1;PMS_P2;Temp;Humidity;BMP_temperature;BMP_pressure;BME280_temperature;BME280_humidity;BME280_pressure;Samples;Min_cycle;Max_cycle;Signal;HPM_P1;HPM_P2
2021/08/06 00:00:58;;;;;;;17.30;12.27;;;;;;;29.82;41.35;98154.59;5088897;28;20123;-70
2021/08/06 00:03:23;;;;;;;19.55;13.55;;;;;;;29.70;41.63;98168.81;5088905;28;20032;-68
2021/08/06 00:05:49;;;;;;;26.75;11.90;;;;;;;29.69;41.28;98166.47;5092796;28;20424;-69
2021/08/06 00:08:15;;;;;;;25.70;11.98;;;;;;;29.67;41.55;98163.25;5094287;28;20043;-70
2021/08/06 00:10:41;;;;;;;22.60;13.40;;;;;;;29.69;41.37;98170.13;5094519;28;20286;-70
2021/08/06 00:13:06;;;;;;;24.35;12.98;;;;;;;29.69;41.43;98158.59;5092915;28;20025;-68
2021/08/06 00:15:32;;;;;;;29.52;14.07;;;;;;;29.64;41.51;98162.19;5094328;28;20114;-71
2021/08/06 00:17:57;;;;;;;24.67;13.93;;;;;;;29.60;41.94;98152.16;5094288;28;20035;-70
2021/08/06 00:20:23;;;;;;;18.73;12.05;;;;;;;29.65;42.18;98162.97;5094374;28;20111;-69
2021/08/06 00:22:48;;;;;;;30.85;12.68;;;;;;;29.61;40.98;98168.16;5094038;28;20036;-70
2021/08/06 00:25:13;;;;;;;23.73;12.38;;;;;;;29.63;41.45;98165.56;5094257;28;20578;-68
2021/08/06 00:27:39;;;;;;;26.83;13.10;;;;;;;29.56;41.64;98167.56;5094139;28;20032;-69
2021/08/06 00:30:05;;;;;;;30.73;13.35;;;;;;;29.58;41.66;98172.03;5093800;28;20549;-68
2021/08/06 00:32:31;;;;;;;20.15;12.30;;;;;;;29.67;41.94;98177.66;5093988;28;20036;-68
2021/08/06 00:34:57;;;;;;;20.95;12.55;;;;;;;29.55;43.10;98174.59;5093678;28;20061;-68
2021/08/06 00:37:23;;;;;;;27.73;12.80;;;;;;;29.43;43.36;98175.69;5093878;28;20032;-68
2021/08/06 00:39:49;;;;;;;27.17;12.02;;;;;;;29.18;43.75;98171.31;5093803;28;20055;-70
2021/08/06 00:42:14;;;;;;;29.23;14.35;;;;;;;29.09;44.09;98175.09;5093755;28;20054;-68
2021/08/06 00:44:40;;;;;;;25.65;12.85;;;;;;;29.09;44.15;98175.88;5093729;28;20081;-68
2021/08/06 00:47:06;;;;;;;24.23;13.20;;;;;;;29.03;43.64;98177.03;5093560;28;20028;-70
2021/08/06 00:49:31;;;;;;;25.80;14.43;;;;;;;28.99;43.74;98183.00;5093580;28;20035;-70
2021/08/06 00:51:58;;;;;;;24.80;13.55;;;;;;;29.04;42.95;98179.44;5093453;28;20036;-69
2021/08/06 00:54:23;;;;;;;35.15;14.38;;;;;;;28.98;42.08;98164.13;5093116;28;20127;-68
2021/08/06 00:56:50;;;;;;;32.58;14.98;;;;;;;28.96;41.89;98161.78;5093358;28;20107;-68
2021/08/06 00:59:16;;;;;;;33.72;13.60;;;;;;;28.96;40.94;98160.97;5093185;28;20032;-70
2021/08/06 01:01:46;;;;;;;27.70;13.30;;;;;;;29.09;40.16;98163.56;5093403;28;20035;-69
2021/08/06 01:04:24;;;;;;;31.80;15.80;;;;;;;29.08;39.79;98179.22;5093132;28;20103;-68
2021/08/06 01:06:52;;;;;;;36.13;14.18;;;;;;;29.09;39.59;98180.84;5092003;28;20484;-70
2021/08/06 01:09:42;;;;;;;32.08;15.02;;;;;;;29.13;39.44;98164.16;5091736;28;20042;-68
2021/08/06 01:12:17;;;;;;;24.90;14.48;;;;;;;29.12;39.36;98156.81;5091769;28;20052;-68
2021/08/06 01:14:43;;;;;;;30.30;14.38;;;;;;;29.14;39.09;98165.75;5091674;28;20455;-68
2021/08/06 01:17:11;;;;;;;38.17;15.88;;;;;;;29.19;39.32;98165.03;5091545;28;20078;-68
2021/08/06 01:19:48;;;;;;;21.92;14.23;;;;;;;29.11;38.98;98170.41;5091547;28;20035;-71
2021/08/06 01:22:40;;;;;;;42.00;16.92;;;;;;;29.03;38.90;98159.78;5091549;28;20063;-68
2021/08/06 01:25:14;;;;;;;29.55;14.35;;;;;;;28.88;39.41;98157.69;5068885;28;20034;-70
2021/08/06 01:27:43;;;;;;;28.83;14.07;;;;;;;28.83;39.16;98153.41;5092915;28;20040;-68
2021/08/06 01:30:09;;;;;;;30.98;15.02;;;;;;;28.87;38.83;98141.72;5091843;28;20024;-68
2021/08/06 01:32:35;;;;;;;39.97;16.88;;;;;;;28.90;38.84;98145.66;5091439;28;20051;-68
2021/08/06 01:35:01;;;;;;;37.95;14.40;;;;;;;28.93;39.25;98145.47;5092549;28;20481;-68
2021/08/06 01:37:26;;;;;;;39.67;15.50;;;;;;;28.86;38.83;98151.63;5091203;28;20043;-70
2021/08/06 01:39:53;;;;;;;36.83;14.68;;;;;;;28.82;38.75;98157.56;5091182;28;20035;-68
2021/08/06 01:42:46;;;;;;;33.92;15.30;;;;;;;28.81;38.79;98150.22;5091154;28;20036;-68
2021/08/06 01:45:17;;;;;;;39.85;15.70;;;;;;;28.72;38.93;98159.72;5091107;28;20501;-68
2021/08/06 01:47:46;;;;;;;29.42;14.05;;;;;;;28.85;39.39;98152.94;5092691;28;20067;-68
2021/08/06 01:50:15;;;;;;;29.90;14.70;;;;;;;28.86;40.48;98151.63;5092322;28;20028;-68
2021/08/06 01:52:50;;;;;;;26.65;13.40;;;;;;;28.69;41.55;98154.94;5090894;28;20059;-70
2021/08/06 01:55:17;;;;;;;23.95;13.10;;;;;;;28.67;41.21;98148.88;5090618;28;20457;-68
2021/08/06 01:57:44;;;;;;;41.03;15.80;;;;;;;28.57;40.69;98155.97;5092381;28;20085;-70
2021/08/06 02:00:10;;;;;;;36.00;16.05;;;;;;;28.52;41.21;98151.69;5092126;28;20082;-68
2021/08/06 02:02:40;;;;;;;31.98;16.38;;;;;;;28.46;41.38;98145.06;5092056;28;20455;-68
2021/08/06 02:05:06;;;;;;;28.67;15.55;;;;;;;28.54;41.32;98159.84;5092027;28;20054;-70
2021/08/06 02:07:32;;;;;;;25.50;14.65;;;;;;;28.54;41.60;98154.09;5090731;28;20056;-70
2021/08/06 02:09:58;;;;;;;25.80;14.52;;;;;;;28.42;42.09;98159.59;5090713;28;20024;-70
2021/08/06 02:12:24;;;;;;;37.33;16.10;;;;;;;28.30;42.39;98175.03;5090463;28;20036;-68
2021/08/06 02:14:50;;;;;;;42.80;16.85;;;;;;;28.20;41.99;98170.63;5090633;28;20028;-70
2021/08/06 02:17:18;;;;;;;39.20;15.88;;;;;;;28.29;41.92;98159.84;5091641;28;20173;-68
2021/08/06 02:19:45;;;;;;;27.25;14.93;;;;;;;28.33;40.34;98173.25;5091585;28;20085;-68
2021/08/06 02:22:12;;;;;;;36.40;15.82;;;;;;;28.33;40.26;98168.28;5091553;28;20036;-68
2021/08/06 02:24:39;;;;;;;28.85;15.70;;;;;;;28.29;40.60;98167.69;5091476;28;20486;-69
2021/08/06 02:27:06;;;;;;;42.92;16.98;;;;;;;28.22;40.40;98165.97;5090871;28;20036;-68
2021/08/06 02:29:34;;;;;;;26.77;15.35;;;;;;;28.38;38.78;98166.81;5090073;28;20481;-68
2021/08/06 02:32:01;;;;;;;40.17;15.18;;;;;;;28.52;38.77;98171.84;5089934;28;20029;-68
2021/08/06 02:34:27;;;;;;;32.03;15.40;;;;;;;28.49;39.21;98169.16;5091229;28;20535;-68
2021/08/06 02:36:53;;;;;;;34.63;16.90;;;;;;;28.45;38.86;98164.38;5090042;28;20660;-68
2021/08/06 02:39:21;;;;;;;40.28;14.55;;;;;;;28.49;37.38;98167.06;5089933;28;20036;-68
2021/08/06 02:41:47;;;;;;;38.40;15.50;;;;;;;28.51;37.46;98166.59;5089719;28;20562;-68
2021/08/06 02:44:13;;;;;;;38.03;14.52;;;;;;;28.57;38.18;98171.16;5091059;28;20036;-69
2021/08/06 02:46:39;;;;;;;31.77;14.02;;;;;;;28.55;37.65;98167.19;5090962;28;20077;-70
2021/08/06 02:49:05;;;;;;;33.88;15.90;;;;;;;28.49;38.09;98164.19;5091051;28;20470;-68
2021/08/06 02:51:30;;;;;;;37.22;15.55;;;;;;;28.45;38.78;98172.22;5089589;28;20035;-69
2021/08/06 02:53:56;;;;;;;28.42;14.18;;;;;;;28.53;38.12;98175.50;5089507;28;20048;-68
2021/08/06 02:56:21;;;;;;;36.47;14.35;;;;;;;28.54;38.06;98182.84;5091044;28;20028;-70
2021/08/06 02:58:47;;;;;;;42.53;16.50;;;;;;;28.55;38.19;98179.50;5089629;28;20461;-68
2021/08/06 03:01:12;;;;;;;42.83;15.35;;;;;;;28.45;38.81;98181.63;5089656;28;20024;-70
2021/08/06 03:03:38;;;;;;;39.85;15.82;;;;;;;28.41;38.93;98181.03;5089773;28;20413;-68
2021/08/06 03:06:03;;;;;;;43.75;15.20;;;;;;;28.39;38.65;98183.59;5089277;28;20055;-68
2021/08/06 03:08:29;;;;;;;34.72;14.48;;;;;;;28.37;38.71;98185.38;5091247;28;20028;-68
2021/08/06 03:10:54;;;;;;;46.17;14.48;;;;;;;28.34;39.54;98192.88;5090615;28;20089;-68
2021/08/06 03:13:19;;;;;;;40.03;15.73;;;;;;;28.28;39.69;98184.13;5091120;28;20039;-68
2021/08/06 03:15:45;;;;;;;52.25;15.52;;;;;;;28.23;39.92;98184.00;5089322;28;20039;-70
2021/08/06 03:18:12;;;;;;;51.45;15.57;;;;;;;28.19;39.80;98174.78;5091215;28;20562;-69
2021/08/06 03:20:38;;;;;;;50.40;15.93;;;;;;;28.26;38.97;98165.81;5090830;28;20054;-70
2021/08/06 03:23:03;;;;;;;52.05;15.88;;;;;;;28.24;39.13;98174.13;5090753;28;20115;-70
2021/08/06 03:25:29;;;;;;;67.43;15.48;;;;;;;28.26;39.52;98165.81;5089471;28;20119;-68
2021/08/06 03:27:55;;;;;;;40.13;13.85;;;;;;;28.22;39.61;98162.28;5089287;28;20115;-68
2021/08/06 03:30:21;;;;;;;47.00;15.65;;;;;;;28.14;40.13;98168.41;5089423;28;20032;-69
2021/08/06 03:32:46;;;;;;;63.58;16.90;;;;;;;27.86;40.86;98165.66;5063753;28;20490;-70
2021/08/06 03:35:13;;;;;;;63.83;18.27;;;;;;;27.77;40.95;98159.16;5084710;28;20118;-70
2021/08/06 03:37:39;;;;;;;138.43;21.15;;;;;;;27.69;41.12;98161.59;5082031;28;20466;-68
2021/08/06 03:40:06;;;;;;;64.72;18.67;;;;;;;27.64;41.54;98165.13;5074214;28;20446;-70
2021/08/06 03:42:31;;;;;;;41.22;17.42;;;;;;;27.53;41.40;98172.19;5083805;28;20494;-68
2021/08/06 03:44:57;;;;;;;35.05;14.52;;;;;;;27.57;41.39;98160.50;5072217;28;20035;-68
2021/08/06 03:47:22;;;;;;;37.03;15.10;;;;;;;27.52;41.58;98166.88;5085891;28;20382;-70
2021/08/06 03:49:47;;;;;;;38.78;15.48;;;;;;;27.50;41.13;98163.72;5079829;28;20024;-70
2021/08/06 03:52:13;;;;;;;58.03;16.15;;;;;;;27.52;41.33;98158.28;5085489;28;20035;-68
2021/08/06 03:54:39;;;;;;;58.90;14.95;;;;;;;27.44;41.46;98163.56;5084410;28;20028;-69
2021/08/06 03:57:05;;;;;;;42.97;14.18;;;;;;;27.43;41.95;98164.84;5090233;28;20116;-70
2021/08/06 03:59:31;;;;;;;61.47;15.90;;;;;;;27.45;42.03;98170.91;5090333;28;20024;-72
2021/08/06 04:01:56;;;;;;;46.42;14.45;;;;;;;27.42;41.77;98169.78;5090173;28;20458;-71
2021/08/06 04:04:22;;;;;;;41.60;13.52;;;;;;;27.51;41.42;98171.03;5088682;28;20032;-69
2021/08/06 04:06:48;;;;;;;54.63;13.40;;;;;;;27.52;41.89;98179.19;5090272;28;20522;-67
2021/08/06 04:09:13;;;;;;;56.35;15.40;;;;;;;27.59;41.51;98172.31;5090109;28;20032;-68
2021/08/06 04:11:39;;;;;;;53.78;14.13;;;;;;;27.66;41.73;98179.81;5090110;28;20024;-69
2021/08/06 04:14:04;;;;;;;62.10;15.55;;;;;;;27.71;41.25;98182.00;5090355;28;20038;-69
2021/08/06 04:16:30;;;;;;;46.28;16.48;;;;;;;27.73;41.38;98185.19;5089048;28;20090;-71
2021/08/06 04:18:55;;;;;;;635.63;76.05;;;;;;;27.77;41.26;98185.81;5089073;28;20032;-70
2021/08/06 04:21:21;;;;;;;214.32;33.28;;;;;;;27.85;42.29;98181.28;5089964;28;20103;-70
2021/08/06 04:23:46;;;;;;;531.75;63.22;;;;;;;27.74;42.16;98181.03;5090508;28;20043;-70
2021/08/06 04:26:12;;;;;;;100.15;21.08;;;;;;;27.79;42.13;98182.44;5089990;28;20034;-70
2021/08/06 04:28:37;;;;;;;68.63;18.20;;;;;;;27.81;41.92;98192.16;5090620;28;20043;-70
2021/08/06 04:31:05;;;;;;;50.38;14.50;;;;;;;27.84;39.79;98182.56;5089831;28;20398;-69
2021/08/06 04:33:31;;;;;;;39.13;17.67;;;;;;;27.81;41.30;98192.16;5088833;28;20039;-72
2021/08/06 04:35:58;;;;;;;41.63;18.20;;;;;;;27.93;41.29;98192.44;5088688;28;20051;-72
2021/08/06 04:38:24;;;;;;;44.63;17.98;;;;;;;27.97;41.59;98195.94;5088495;28;20481;-76
2021/08/06 04:40:49;;;;;;;46.30;16.83;;;;;;;27.99;41.60;98190.47;5088804;28;20028;-69
2021/08/06 04:43:15;;;;;;;37.92;14.68;;;;;;;27.98;41.68;98195.44;5089980;28;20036;-70
2021/08/06 04:45:41;;;;;;;40.30;12.02;;;;;;;28.10;39.45;98204.34;5088571;28;20044;-72
2021/08/06 04:48:07;;;;;;;31.17;12.35;;;;;;;28.16;39.23;98205.25;5090080;28;20055;-70
2021/08/06 04:50:33;;;;;;;41.10;10.80;;;;;;;28.19;39.26;98206.38;5091358;28;20031;-71
2021/08/06 04:52:59;;;;;;;33.45;13.38;;;;;;;28.17;39.46;98204.81;5071413;28;20480;-70
2021/08/06 04:55:25;;;;;;;29.15;10.63;;;;;;;28.22;39.65;98211.97;5071930;28;20028;-71
2021/08/06 04:57:51;;;;;;;40.10;9.88;;;;;;;28.21;40.27;98210.38;5084977;28;20093;-70
2021/08/06 05:00:18;;;;;;;37.40;11.00;;;;;;;28.19;40.92;98209.25;5080839;28;20020;-70
2021/08/06 05:02:44;;;;;;;31.15;10.88;;;;;;;28.14;40.94;98211.50;5085843;28;20068;-68
2021/08/06 05:05:10;;;;;;;38.55;11.88;;;;;;;28.14;40.76;98208.63;5082569;28;20029;-71
2021/08/06 05:07:35;;;;;;;36.65;10.63;;;;;;;28.22;40.60;98206.22;5084259;28;20063;-70
2021/08/06 05:10:00;;;;;;;26.55;9.77;;;;;;;28.28;40.61;98207.13;5086098;28;20028;-69
2021/08/06 05:12:26;;;;;;;38.17;11.63;;;;;;;28.29;40.64;98207.94;5082269;28;20060;-68
2021/08/06 05:14:51;;;;;;;33.38;11.00;;;;;;;28.32;40.81;98212.69;5087194;28;20629;-69
2021/08/06 05:17:17;;;;;;;29.23;9.50;;;;;;;28.37;39.80;98208.34;5080626;28;20031;-73
2021/08/06 05:19:42;;;;;;;18.33;9.32;;;;;;;28.36;39.15;98216.22;5075062;28;20111;-71
2021/08/06 05:22:08;;;;;;;35.35;10.18;;;;;;;28.36;39.56;98218.28;5080941;28;20030;-69
2021/08/06 05:24:33;;;;;;;39.97;10.93;;;;;;;28.42;38.77;98222.09;5082942;28;20190;-69
2021/08/06 05:26:59;;;;;;;28.80;9.43;;;;;;;28.41;38.71;98221.28;5083149;28;20028;-70
2021/08/06 05:29:25;;;;;;;56.70;9.45;;;;;;;28.52;37.77;98219.94;5081244;28;20040;-70
2021/08/06 05:31:50;;;;;;;22.77;8.80;;;;;;;28.60;37.92;98235.53;5079537;28;20103;-70
2021/08/06 05:34:15;;;;;;;27.77;9.57;;;;;;;28.56;38.52;98232.03;5068808;28;20032;-71
2021/08/06 05:36:41;;;;;;;24.23;8.50;;;;;;;28.56;38.98;98232.03;5070610;28;20058;-71
2021/08/06 05:39:06;;;;;;;30.25;8.18;;;;;;;28.46;38.37;98231.31;5071495;28;20021;-71
2021/08/06 05:41:32;;;;;;;18.02;7.75;;;;;;;28.50;38.81;98236.88;5073435;28;20409;-72
2021/08/06 05:43:57;;;;;;;34.88;8.88;;;;;;;28.44;38.23;98236.75;5072729;28;20043;-70
2021/08/06 05:46:23;;;;;;;27.38;9.43;;;;;;;28.41;38.28;98229.91;5072939;28;20032;-68
2021/08/06 05:48:48;;;;;;;23.75;7.45;;;;;;;28.42;37.95;98225.75;5070519;28;20074;-70
2021/08/06 05:51:13;;;;;;;29.85;8.05;;;;;;;28.40;37.89;98236.13;5071023;28;20032;-69
2021/08/06 05:53:39;;;;;;;30.17;8.93;;;;;;;28.39;37.75;98240.28;5074425;28;20052;-71
2021/08/06 05:56:05;;;;;;;36.08;9.48;;;;;;;28.24;38.31;98245.97;5092309;28;20485;-68
2021/08/06 05:58:30;;;;;;;31.08;8.63;;;;;;;28.33;38.38;98237.28;5091075;28;20036;-71
2021/08/06 06:00:56;;;;;;;25.17;8.38;;;;;;;28.32;38.56;98247.19;5092102;28;20081;-71
2021/08/06 06:03:22;;;;;;;40.63;8.50;;;;;;;28.37;38.04;98255.16;5092436;28;20040;-68
2021/08/06 06:05:47;;;;;;;41.72;8.38;;;;;;;28.27;38.15;98253.63;5090739;28;20481;-71
2021/08/06 06:08:13;;;;;;;35.20;9.18;;;;;;;28.15;38.24;98250.44;5090650;28;20028;-71
2021/08/06 06:10:38;;;;;;;25.10;7.80;;;;;;;28.03;38.73;98260.84;5091946;28;20032;-71
2021/08/06 06:13:04;;;;;;;26.55;9.18;;;;;;;28.15;38.54;98264.81;5091888;28;20047;-68
2021/08/06 06:15:30;;;;;;;20.33;7.45;;;;;;;28.20;38.38;98274.06;5092001;28;20096;-68
2021/08/06 06:17:56;;;;;;;26.88;8.25;;;;;;;28.17;38.52;98270.91;5092024;28;20036;-74
2021/08/06 06:20:23;;;;;;;27.15;8.90;;;;;;;27.99;38.78;98270.94;5091970;28;20477;-66
2021/08/06 06:22:49;;;;;;;19.40;8.45;;;;;;;27.96;38.54;98277.66;5091755;28;20036;-69
2021/08/06 06:25:16;;;;;;;21.88;6.65;;;;;;;27.96;38.40;98274.78;5090862;28;20032;-67
2021/08/06 06:27:49;;;;;;;27.90;7.50;;;;;;;28.06;38.24;98276.34;5091946;28;20150;-69
2021/08/06 06:30:14;;;;;;;46.80;9.88;;;;;;;28.09;38.21;98274.59;5090339;28;20028;-69
2021/08/06 06:32:40;;;;;;;22.92;7.70;;;;;;;28.09;38.32;98283.22;5090244;28;20723;-69
2021/08/06 06:35:06;;;;;;;33.55;7.68;;;;;;;28.06;38.33;98290.72;5090321;28;20024;-66
2021/08/06 06:37:31;;;;;;;28.33;8.20;;;;;;;27.98;37.46;98275.09;5091629;28;20043;-69
2021/08/06 06:39:57;;;;;;;25.85;8.88;;;;;;;27.95;38.64;98293.31;5091387;28;20017;-66
2021/08/06 06:42:22;;;;;;;28.08;7.15;;;;;;;28.03;38.63;98286.72;5091301;28;20039;-69
2021/08/06 06:44:47;;;;;;;17.60;7.20;;;;;;;28.01;38.68;98305.75;5091333;28;20032;-68
2021/08/06 06:47:13;;;;;;;48.08;9.85;;;;;;;27.83;38.89;98315.22;5089852;28;20527;-66
2021/08/06 06:49:38;;;;;;;32.97;6.75;;;;;;;27.72;39.48;98309.94;5091227;28;20032;-68
2021/08/06 06:52:04;;;;;;;44.47;8.55;;;;;;;27.66;39.32;98309.03;5091150;28;20047;-66
2021/08/06 06:54:29;;;;;;;26.02;6.70;;;;;;;27.83;39.24;98304.50;5091101;28;20451;-66
2021/08/06 06:56:55;;;;;;;39.45;7.60;;;;;;;27.80;39.39;98319.03;5091331;28;20036;-69
2021/08/06 06:59:21;;;;;;;20.42;6.25;;;;;;;27.87;39.11;98316.63;5063129;28;20032;-66
2021/08/06 07:01:46;;;;;;;30.38;7.63;;;;;;;28.01;39.45;98323.75;5091094;28;20028;-66
2021/08/06 07:04:11;;;;;;;25.02;5.90;;;;;;;28.04;38.84;98313.38;5090870;28;20024;-69
2021/08/06 07:06:37;;;;;;;27.15;7.78;;;;;;;28.14;38.62;98312.09;5091071;28;20513;-69
2021/08/06 07:09:07;;;;;;;26.63;6.80;;;;;;;28.26;38.58;98321.78;5090830;28;20520;-66
2021/08/06 07:11:32;;;;;;;39.83;7.47;;;;;;;28.10;37.81;98328.69;5091402;28;20028;-66
2021/08/06 07:13:58;;;;;;;49.33;6.82;;;;;;;28.09;37.60;98332.84;5090660;28;20032;-70
2021/08/06 07:16:23;;;;;;;29.75;7.05;;;;;;;28.06;38.48;98328.06;5091023;28;20382;-69
2021/08/06 07:18:49;;;;;;;25.52;7.70;;;;;;;28.05;37.91;98342.91;5089713;28;20405;-64
2021/08/06 07:21:14;;;;;;;17.88;7.18;;;;;;;28.09;37.66;98338.59;5090749;28;20070;-69
2021/08/06 07:23:40;;;;;;;21.05;6.80;;;;;;;27.97;38.02;98345.31;5091033;28;20470;-68
2021/08/06 07:26:05;;;;;;;12.45;6.65;;;;;;;27.99;38.47;98342.75;5089214;28;20032;-70
2021/08/06 07:28:31;;;;;;;26.27;6.63;;;;;;;27.95;38.54;98347.88;5091038;28;20381;-67
2021/08/06 07:30:56;;;;;;;58.83;28.20;;;;;;;27.77;39.35;98346.66;5090520;28;20039;-70
2021/08/06 07:33:22;;;;;;;37.20;9.63;;;;;;;27.64;39.63;98343.94;5089435;28;20020;-67
2021/08/06 07:35:47;;;;;;;16.23;6.95;;;;;;;27.59;39.89;98348.25;5090733;28;20028;-70
2021/08/06 07:38:13;;;;;;;33.10;7.47;;;;;;;27.66;39.57;98350.00;5090726;28;20054;-67
2021/08/06 07:40:38;;;;;;;17.88;5.40;;;;;;;27.76;39.44;98345.06;5089328;28;20054;-70
2021/08/06 07:43:04;;;;;;;12.57;6.32;;;;;;;27.72;38.89;98341.53;5090633;28;20036;-67
2021/08/06 07:45:29;;;;;;;13.38;6.63;;;;;;;27.78;38.56;98345.38;5089297;28;20471;-70
2021/08/06 07:47:55;;;;;;;17.35;5.72;;;;;;;27.92;38.90;98346.75;5089279;28;20035;-70
2021/08/06 07:50:20;;;;;;;14.85;5.38;;;;;;;27.94;38.27;98347.09;5089118;28;20024;-67
2021/08/06 07:52:46;;;;;;;12.98;4.82;;;;;;;28.08;37.97;98342.75;5090409;28;20109;-70
2021/08/06 07:55:18;;;;;;;16.75;5.32;;;;;;;28.19;37.37;98350.91;5090419;28;20024;-71
2021/08/06 07:57:44;;;;;;;10.93;5.78;;;;;;;28.11;37.52;98358.22;5090525;28;20032;-68
2021/08/06 08:00:10;;;;;;;12.18;4.32;;;;;;;28.21;37.45;98356.94;5089048;28;20027;-68
2021/08/06 08:02:37;;;;;;;10.13;5.47;;;;;;;28.44;37.15;98366.13;5090184;28;20489;-70
2021/08/06 08:05:04;;;;;;;15.95;9.65;;;;;;;28.62;37.11;98358.69;5090325;28;20035;-68
2021/08/06 08:07:30;;;;;;;12.85;6.90;;;;;;;28.45;36.84;98368.50;5090317;28;20043;-71
2021/08/06 08:09:55;;;;;;;13.55;9.13;;;;;;;28.40;36.75;98369.19;5090392;28;20032;-69
2021/08/06 08:12:21;;;;;;;9.82;6.25;;;;;;;28.41;37.41;98361.34;5089998;28;20540;-68
2021/08/06 08:14:48;;;;;;;15.98;8.18;;;;;;;28.19;38.07;98371.00;5088953;28;20378;-71
2021/08/06 08:17:16;;;;;;;15.77;5.05;;;;;;;28.21;37.61;98376.25;5090296;28;20032;-69
2021/08/06 08:19:42;;;;;;;18.65;7.13;;;;;;;28.02;38.34;98382.03;5088811;28;20459;-68
2021/08/06 08:22:08;;;;;;;26.58;13.02;;;;;;;27.82;39.27;98382.56;5090267;28;20042;-73
2021/08/06 08:24:33;;;;;;;33.40;20.85;;;;;;;27.87;39.58;98373.28;5067621;28;20069;-71
2021/08/06 08:26:59;;;;;;;14.15;7.90;;;;;;;28.08;39.26;98374.34;5084923;28;20032;-88
2021/08/06 08:29:25;;;;;;;16.08;8.55;;;;;;;27.98;39.53;98367.84;5089615;28;20047;-72
2021/08/06 08:31:51;;;;;;;16.65;7.55;;;;;;;27.97;39.65;98366.25;5081456;28;20473;-70
2021/08/06 08:34:16;;;;;;;14.07;10.30;;;;;;;27.91;39.91;98367.38;5092587;28;20529;-69
2021/08/06 08:36:42;;;;;;;20.58;9.55;;;;;;;27.99;39.82;98360.00;5093774;28;20043;-69
2021/08/06 08:39:07;;;;;;;9.98;6.47;;;;;;;27.59;40.40;98362.63;5093881;28;20099;-70
2021/08/06 08:41:33;;;;;;;17.38;9.18;;;;;;;27.71;40.26;98355.13;5093797;28;20029;-71
2021/08/06 08:43:58;;;;;;;13.25;7.35;;;;;;;27.65;40.22;98350.50;5084050;28;20036;-76
2021/08/06 08:46:32;;;;;;;16.10;7.40;;;;;;;27.79;40.41;98343.28;5088925;28;20026;-76
2021/08/06 08:48:59;;;;;;;12.88;7.05;;;;;;;27.94;40.14;98343.41;5094634;28;20035;-75
2021/08/06 08:51:26;;;;;;;13.98;7.63;;;;;;;27.94;39.86;98349.16;5093815;28;20474;-80
2021/08/06 08:53:52;;;;;;;24.88;15.85;;;;;;;27.95;40.52;98354.44;5091984;28;20063;-76
2021/08/06 08:56:18;;;;;;;25.33;8.90;;;;;;;28.19;41.13;98358.72;5093420;28;20035;-73
2021/08/06 08:58:44;;;;;;;12.38;7.45;;;;;;;28.42;40.46;98363.72;5093672;28;20028;-75
2021/08/06 09:01:10;;;;;;;16.23;8.50;;;;;;;28.57;41.02;98352.34;5092139;28;20421;-70
2021/08/06 09:03:38;;;;;;;18.73;11.13;;;;;;;28.75;40.83;98352.72;5092074;28;20097;-76
2021/08/06 09:06:04;;;;;;;21.50;7.90;;;;;;;28.73;40.38;98350.31;5091876;28;20032;-69
2021/08/06 09:08:30;;;;;;;18.33;8.07;;;;;;;28.56;40.78;98352.81;5092108;28;20534;-75
2021/08/06 09:10:55;;;;;;;14.98;7.38;;;;;;;28.80;40.54;98349.16;5092898;28;20111;-76
2021/08/06 09:13:26;;;;;;;15.43;9.18;;;;;;;28.86;40.46;98348.03;5093515;28;20393;-76
2021/08/06 09:16:00;;;;;;;15.07;8.70;;;;;;;28.87;38.94;98343.09;5091700;28;20040;-75
2021/08/06 09:18:33;;;;;;;19.33;8.80;;;;;;;28.84;37.55;98344.88;5091688;28;20032;-74
2021/08/06 09:21:14;;;;;;;14.75;8.20;;;;;;;28.67;38.17;98347.31;5091822;28;20070;-78
2021/08/06 09:23:56;;;;;;;10.88;6.60;;;;;;;28.55;38.84;98351.22;5093378;28;20035;-69
2021/08/06 09:26:28;;;;;;;23.85;6.10;;;;;;;28.64;38.97;98353.25;5092743;28;20467;-73
2021/08/06 09:29:12;;;;;;;39.83;8.02;;;;;;;28.72;38.60;98351.63;5091744;28;20031;-75
2021/08/06 09:31:55;;;;;;;12.98;6.40;;;;;;;28.62;38.93;98338.56;5092550;28;20078;-71
2021/08/06 09:34:27;;;;;;;14.52;5.63;;;;;;;28.65;39.26;98341.28;5077023;28;20545;-71
2021/08/06 09:37:12;;;;;;;10.63;5.05;;;;;;;28.66;39.05;98328.47;5092380;28;20439;-69
2021/08/06 09:39:43;;;;;;;11.55;6.53;;;;;;;28.71;37.94;98324.91;5091281;28;20028;-68
2021/08/06 09:42:32;;;;;;;11.05;6.90;;;;;;;28.65;38.86;98320.31;5091809;28;20039;-72
2021/08/06 09:45:09;;;;;;;13.98;6.63;;;;;;;28.77;39.74;98318.50;5092473;28;20509;-70
2021/08/06 09:47:37;;;;;;;16.45;7.60;;;;;;;29.00;39.77;98312.00;5091147;28;20515;-66
2021/08/06 09:50:07;;;;;;;16.88;12.50;;;;;;;29.14;38.70;98313.34;5090971;28;20489;-66
2021/08/06 09:52:35;;;;;;;17.38;6.82;;;;;;;29.11;36.73;98302.00;5092057;28;20474;-66
2021/08/06 09:55:02;;;;;;;20.48;8.55;;;;;;;29.10;37.94;98309.84;5090931;28;20031;-65
2021/08/06 09:57:28;;;;;;;8.65;5.63;;;;;;;29.15;37.48;98302.59;5092231;28;20075;-69
2021/08/06 09:59:56;;;;;;;16.73;9.15;;;;;;;29.32;37.22;98290.63;5092216;28;20051;-70
2021/08/06 10:02:30;;;;;;;24.25;14.15;;;;;;;29.59;37.00;98285.94;5087825;28;20047;-71
2021/08/06 10:05:07;;;;;;;11.68;7.22;;;;;;;29.29;36.93;98281.69;5081949;28;20031;-70
2021/08/06 10:07:47;;;;;;;16.45;5.47;;;;;;;29.45;38.11;98268.16;5090701;28;20122;-65
2021/08/06 10:10:19;;;;;;;14.95;7.00;;;;;;;29.67;38.64;98264.06;5090724;28;20039;-69
2021/08/06 10:12:47;;;;;;;9.05;5.40;;;;;;;29.88;37.74;98259.22;5090671;28;20071;-67
2021/08/06 10:15:13;;;;;;;11.45;5.00;;;;;;;30.09;37.30;98242.00;5091929;28;20028;-71
2021/08/06 10:17:39;;;;;;;13.93;6.82;;;;;;;30.16;35.87;98243.69;5091622;28;20028;-71
2021/08/06 10:20:06;;;;;;;16.45;5.82;;;;;;;30.15;36.47;98244.97;5091915;28;20031;-71
2021/08/06 10:22:32;;;;;;;19.00;7.72;;;;;;;30.46;36.04;98246.50;5091695;28;20032;-70
2021/08/06 10:24:58;;;;;;;13.27;5.75;;;;;;;30.50;36.10;98232.66;5091757;28;20185;-68
2021/08/06 10:27:26;;;;;;;12.68;6.38;;;;;;;30.37;36.73;98250.31;5091802;28;20097;-75
2021/08/06 10:30:08;;;;;;;15.13;6.15;;;;;;;30.41;36.66;98253.78;5091517;28;20397;-68
2021/08/06 10:32:35;;;;;;;12.27;7.50;;;;;;;30.44;36.66;98249.88;5090661;28;20401;-68
2021/08/06 10:35:06;;;;;;;8.68;4.65;;;;;;;30.51;36.30;98243.69;5089384;28;20085;-68
2021/08/06 10:37:50;;;;;;;9.77;4.82;;;;;;;30.89;36.28;98248.94;5089710;28;20038;-70
2021/08/06 10:40:39;;;;;;;8.77;6.00;;;;;;;31.13;35.37;98234.25;5061999;28;20024;-68
2021/08/06 10:43:11;;;;;;;10.32;5.32;;;;;;;31.09;35.20;98248.13;5078168;28;20044;-68
2021/08/06 10:45:46;;;;;;;10.98;5.88;;;;;;;30.83;34.58;98251.75;5077018;28;20035;-70
2021/08/06 10:48:26;;;;;;;10.10;4.50;;;;;;;30.77;35.27;98239.31;5090173;28;20048;-70
2021/08/06 10:51:29;;;;;;;11.50;7.65;;;;;;;30.89;34.77;98243.97;5079947;28;20383;-68
2021/08/06 10:53:54;;;;;;;10.88;5.53;;;;;;;30.96;34.22;98248.50;5072726;28;20079;-71
2021/08/06 10:56:24;;;;;;;11.40;6.85;;;;;;;30.76;33.86;98252.97;5090067;28;20181;-67
2021/08/06 10:58:52;;;;;;;;;;;;;;;30.91;33.98;98229.81;5090162;28;20516;-71
2021/08/06 11:01:31;;;;;;;10.43;5.20;;;;;;;31.05;33.87;98221.56;5071486;28;19918;-70
2021/08/06 11:03:59;;;;;;;9.40;6.43;;;;;;;31.39;35.27;98219.09;5084287;28;20126;-71
2021/08/06 11:06:36;;;;;;;15.10;6.95;;;;;;;31.50;32.97;98201.06;5088977;28;20031;-71
2021/08/06 11:09:04;;;;;;;12.93;5.85;;;;;;;31.74;32.05;98194.16;5089104;28;20468;-69
2021/08/06 11:11:49;;;;;;;13.73;7.18;;;;;;;31.82;31.77;98200.28;5088939;28;20421;-70
2021/08/06 11:14:17;;;;;;;9.90;5.65;;;;;;;31.71;31.26;98195.97;5088699;28;20536;-68
2021/08/06 11:17:02;;;;;;;6.93;5.53;;;;;;;31.74;32.25;98194.16;5071694;28;20033;-68
2021/08/06 11:19:32;;;;;;;12.32;6.32;;;;;;;31.47;32.09;98199.97;5084903;28;20105;-68
2021/08/06 11:21:59;;;;;;;8.77;4.82;;;;;;;31.40;32.81;98202.53;5086448;28;20032;-68
2021/08/06 11:24:25;;;;;;;16.20;5.55;;;;;;;31.75;32.78;98198.63;5082814;28;20028;-68